sensor_id;sensor_type;location;lat;lon;timestamp;pressure;altitude;pressure_sealevel;temperature;humidity
41706;BME280;27385;51.096;17.190;2023-01-09T00:02:07;99092.83;;;3.04;91.56
41706;BME280;27385;51.096;17.190;2023-01-09T00:04:38;99092.80;;;3.01;91.40
41706;BME280;27385;51.096;17.190;2023-01-09T00:07:09;99093.70;;;2.98;91.26
41706;BME280;27385;51.096;17.190;2023-01-09T00:09:40;99095.96;;;2.95;91.21
41706;BME280;27385;51.096;17.190;2023-01-09T00:12:11;99092.60;;;2.92;91.24
41706;BME280;27385;51.096;17.190;2023-01-09T00:14:42;99082.11;;;2.91;91.55
41706;BME280;27385;51.096;17.190;2023-01-09T00:17:13;99079.59;;;2.91;91.54
41706;BME280;27385;51.096;17.190;2023-01-09T00:19:44;99084.11;;;2.90;91.35
41706;BME280;27385;51.096;17.190;2023-01-09T00:22:15;99077.34;;;2.88;91.37
41706;BME280;27385;51.096;17.190;2023-01-09T00:24:46;99072.20;;;2.85;91.10
41706;BME280;27385;51.096;17.190;2023-01-09T00:27:17;99072.00;;;2.82;91.11
41706;BME280;27385;51.096;17.190;2023-01-09T00:29:47;99078.88;;;2.79;91.04
41706;BME280;27385;51.096;17.190;2023-01-09T00:32:19;99082.79;;;2.76;91.13
41706;BME280;27385;51.096;17.190;2023-01-09T00:34:50;99089.75;;;2.73;90.99
41706;BME280;27385;51.096;17.190;2023-01-09T00:37:22;99088.95;;;2.70;91.09
41706;BME280;27385;51.096;17.190;2023-01-09T00:39:53;99088.27;;;2.67;90.96
41706;BME280;27385;51.096;17.190;2023-01-09T00:42:26;99083.84;;;2.63;90.96
41706;BME280;27385;51.096;17.190;2023-01-09T00:45:02;99087.86;;;2.59;90.75
41706;BME280;27385;51.096;17.190;2023-01-09T00:47:37;99086.38;;;2.55;90.77
41706;BME280;27385;51.096;17.190;2023-01-09T00:50:11;99088.69;;;2.50;90.74
41706;BME280;27385;51.096;17.190;2023-01-09T00:52:44;99091.00;;;2.47;91.00
41706;BME280;27385;51.096;17.190;2023-01-09T00:55:15;99087.84;;;2.47;91.01
41706;BME280;27385;51.096;17.190;2023-01-09T00:57:47;99083.55;;;2.46;90.93
41706;BME280;27385;51.096;17.190;2023-01-09T01:00:19;99084.02;;;2.44;91.03
41706;BME280;27385;51.096;17.190;2023-01-09T01:02:49;99089.35;;;2.41;90.79
41706;BME280;27385;51.096;17.190;2023-01-09T01:05:20;99092.89;;;2.39;90.91
41706;BME280;27385;51.096;17.190;2023-01-09T01:08:12;99089.04;;;2.38;91.20
41706;BME280;27385;51.096;17.190;2023-01-09T01:10:43;99084.27;;;2.36;91.19
41706;BME280;27385;51.096;17.190;2023-01-09T01:13:15;99082.61;;;2.36;91.41
41706;BME280;27385;51.096;17.190;2023-01-09T01:15:46;99088.66;;;2.34;91.25
41706;BME280;27385;51.096;17.190;2023-01-09T01:18:17;99081.55;;;2.32;91.42
41706;BME280;27385;51.096;17.190;2023-01-09T01:20:48;99078.38;;;2.33;91.60
41706;BME280;27385;51.096;17.190;2023-01-09T01:23:19;99073.29;;;2.33;91.60
41706;BME280;27385;51.096;17.190;2023-01-09T01:25:50;99072.88;;;2.33;91.67
41706;BME280;27385;51.096;17.190;2023-01-09T01:28:21;99080.77;;;2.33;91.68
41706;BME280;27385;51.096;17.190;2023-01-09T01:30:52;99080.61;;;2.33;91.65
41706;BME280;27385;51.096;17.190;2023-01-09T01:33:23;99074.73;;;2.32;91.66
41706;BME280;27385;51.096;17.190;2023-01-09T01:36:02;99073.91;;;2.31;91.73
41706;BME280;27385;51.096;17.190;2023-01-09T01:38:34;99068.42;;;2.30;91.82
41706;BME280;27385;51.096;17.190;2023-01-09T01:41:06;99063.16;;;2.30;91.87
41706;BME280;27385;51.096;17.190;2023-01-09T01:43:54;99055.11;;;2.31;91.92
41706;BME280;27385;51.096;17.190;2023-01-09T01:46:25;99050.21;;;2.29;91.88
41706;BME280;27385;51.096;17.190;2023-01-09T01:49:00;99057.83;;;2.28;91.93
41706;BME280;27385;51.096;17.190;2023-01-09T01:51:38;99056.17;;;2.28;92.02
41706;BME280;27385;51.096;17.190;2023-01-09T01:54:17;99049.06;;;2.26;91.99
41706;BME280;27385;51.096;17.190;2023-01-09T01:56:52;99042.98;;;2.25;92.03
41706;BME280;27385;51.096;17.190;2023-01-09T01:59:28;99038.14;;;2.24;92.12
41706;BME280;27385;51.096;17.190;2023-01-09T02:02:03;99029.55;;;2.22;92.10
41706;BME280;27385;51.096;17.190;2023-01-09T02:04:36;99026.34;;;2.22;92.25
41706;BME280;27385;51.096;17.190;2023-01-09T02:07:10;99021.30;;;2.22;92.32
41706;BME280;27385;51.096;17.190;2023-01-09T02:09:42;99019.65;;;2.22;92.32
41706;BME280;27385;51.096;17.190;2023-01-09T02:12:20;99015.20;;;2.21;92.46
41706;BME280;27385;51.096;17.190;2023-01-09T02:14:57;99009.95;;;2.21;92.50
41706;BME280;27385;51.096;17.190;2023-01-09T02:17:49;99003.33;;;2.21;92.68
41706;BME280;27385;51.096;17.190;2023-01-09T02:20:34;98995.48;;;2.21;92.67
41706;BME280;27385;51.096;17.190;2023-01-09T02:26:33;98980.71;;;2.20;92.56
41706;BME280;27385;51.096;17.190;2023-01-09T02:32:29;98967.94;;;2.21;92.68
41706;BME280;27385;51.096;17.190;2023-01-09T02:35:10;98965.50;;;2.21;92.71
41706;BME280;27385;51.096;17.190;2023-01-09T02:37:53;98963.16;;;2.22;92.74
41706;BME280;27385;51.096;17.190;2023-01-09T02:40:29;98954.48;;;2.21;92.77
41706;BME280;27385;51.096;17.190;2023-01-09T02:43:02;98951.27;;;2.21;92.88
41706;BME280;27385;51.096;17.190;2023-01-09T02:45:34;98942.90;;;2.19;92.92
41706;BME280;27385;51.096;17.190;2023-01-09T02:48:06;98944.36;;;2.18;93.04
41706;BME280;27385;51.096;17.190;2023-01-09T02:50:45;98939.59;;;2.17;93.10
41706;BME280;27385;51.096;17.190;2023-01-09T02:56:32;98929.97;;;2.20;93.11
41706;BME280;27385;51.096;17.190;2023-01-09T02:59:22;98928.20;;;2.21;93.12
41706;BME280;27385;51.096;17.190;2023-01-09T03:02:05;98930.80;;;2.21;93.12
41706;BME280;27385;51.096;17.190;2023-01-09T03:04:45;98923.03;;;2.21;93.16
41706;BME280;27385;51.096;17.190;2023-01-09T03:07:25;98921.47;;;2.20;93.17
41706;BME280;27385;51.096;17.190;2023-01-09T03:10:05;98919.90;;;2.22;93.19
41706;BME280;27385;51.096;17.190;2023-01-09T03:12:38;98919.29;;;2.21;93.29
41706;BME280;27385;51.096;17.190;2023-01-09T03:15:13;98913.95;;;2.22;93.30
41706;BME280;27385;51.096;17.190;2023-01-09T03:17:47;98908.38;;;2.21;93.40
41706;BME280;27385;51.096;17.190;2023-01-09T03:20:22;98909.73;;;2.21;93.35
41706;BME280;27385;51.096;17.190;2023-01-09T03:22:58;98910.91;;;2.21;93.32
41706;BME280;27385;51.096;17.190;2023-01-09T03:25:31;98913.18;;;2.21;93.37
41706;BME280;27385;51.096;17.190;2023-01-09T03:28:03;98908.49;;;2.22;93.37
41706;BME280;27385;51.096;17.190;2023-01-09T03:30:35;98912.36;;;2.22;93.39
41706;BME280;27385;51.096;17.190;2023-01-09T03:33:06;98908.55;;;2.22;93.35
41706;BME280;27385;51.096;17.190;2023-01-09T03:35:37;98903.18;;;2.23;93.30
41706;BME280;27385;51.096;17.190;2023-01-09T03:38:08;98899.79;;;2.23;93.22
41706;BME280;27385;51.096;17.190;2023-01-09T03:40:40;98900.36;;;2.23;93.23
41706;BME280;27385;51.096;17.190;2023-01-09T03:43:12;98899.69;;;2.22;93.20
41706;BME280;27385;51.096;17.190;2023-01-09T03:45:44;98894.91;;;2.21;93.21
41706;BME280;27385;51.096;17.190;2023-01-09T03:48:15;98893.38;;;2.20;93.12
41706;BME280;27385;51.096;17.190;2023-01-09T03:50:46;98894.04;;;2.19;93.23
41706;BME280;27385;51.096;17.190;2023-01-09T03:53:18;98884.63;;;2.19;93.28
41706;BME280;27385;51.096;17.190;2023-01-09T03:55:52;98879.95;;;2.18;93.29
41706;BME280;27385;51.096;17.190;2023-01-09T03:58:24;98877.06;;;2.15;93.34
41706;BME280;27385;51.096;17.190;2023-01-09T04:01:00;98868.52;;;2.13;93.40
41706;BME280;27385;51.096;17.190;2023-01-09T04:03:31;98862.66;;;2.11;93.52
41706;BME280;27385;51.096;17.190;2023-01-09T04:06:02;98857.66;;;2.11;93.57
41706;BME280;27385;51.096;17.190;2023-01-09T04:08:33;98857.90;;;2.11;93.65
41706;BME280;27385;51.096;17.190;2023-01-09T04:11:04;98854.94;;;2.11;93.71
41706;BME280;27385;51.096;17.190;2023-01-09T04:13:35;98853.80;;;2.09;93.86
41706;BME280;27385;51.096;17.190;2023-01-09T04:16:07;98848.26;;;2.06;93.82
41706;BME280;27385;51.096;17.190;2023-01-09T04:18:38;98854.34;;;2.04;93.84
41706;BME280;27385;51.096;17.190;2023-01-09T04:21:09;98865.16;;;2.04;93.93
41706;BME280;27385;51.096;17.190;2023-01-09T04:23:40;98866.02;;;2.05;94.11
41706;BME280;27385;51.096;17.190;2023-01-09T04:26:11;98867.23;;;2.04;94.16
41706;BME280;27385;51.096;17.190;2023-01-09T04:28:42;98860.91;;;2.04;94.31
41706;BME280;27385;51.096;17.190;2023-01-09T04:31:13;98855.20;;;2.04;94.36
41706;BME280;27385;51.096;17.190;2023-01-09T04:33:44;98849.00;;;2.03;94.46
41706;BME280;27385;51.096;17.190;2023-01-09T04:36:15;98853.41;;;2.03;94.54
41706;BME280;27385;51.096;17.190;2023-01-09T04:38:46;98849.69;;;2.04;94.66
41706;BME280;27385;51.096;17.190;2023-01-09T04:41:17;98847.58;;;2.06;94.79
41706;BME280;27385;51.096;17.190;2023-01-09T04:44:02;98832.80;;;2.07;94.79
41706;BME280;27385;51.096;17.190;2023-01-09T04:46:33;98831.06;;;2.09;94.96
41706;BME280;27385;51.096;17.190;2023-01-09T04:49:04;98827.98;;;2.13;95.10
41706;BME280;27385;51.096;17.190;2023-01-09T04:51:35;98827.29;;;2.15;95.09
41706;BME280;27385;51.096;17.190;2023-01-09T04:54:06;98823.84;;;2.17;95.01
41706;BME280;27385;51.096;17.190;2023-01-09T04:56:37;98824.56;;;2.18;95.01
41706;BME280;27385;51.096;17.190;2023-01-09T04:59:09;98822.28;;;2.20;95.00
41706;BME280;27385;51.096;17.190;2023-01-09T05:01:39;98814.90;;;2.20;94.96
41706;BME280;27385;51.096;17.190;2023-01-09T05:04:10;98815.91;;;2.20;94.92
41706;BME280;27385;51.096;17.190;2023-01-09T05:06:42;98818.03;;;2.18;94.90
41706;BME280;27385;51.096;17.190;2023-01-09T05:09:13;98820.16;;;2.18;94.95
41706;BME280;27385;51.096;17.190;2023-01-09T05:11:44;98824.45;;;2.19;95.02
41706;BME280;27385;51.096;17.190;2023-01-09T05:14:15;98823.90;;;2.17;94.89
41706;BME280;27385;51.096;17.190;2023-01-09T05:16:46;98824.17;;;2.16;94.87
41706;BME280;27385;51.096;17.190;2023-01-09T05:19:17;98820.32;;;2.16;94.98
41706;BME280;27385;51.096;17.190;2023-01-09T05:21:49;98813.58;;;2.17;95.00
41706;BME280;27385;51.096;17.190;2023-01-09T05:24:20;98805.23;;;2.19;95.02
41706;BME280;27385;51.096;17.190;2023-01-09T05:26:51;98802.73;;;2.19;94.96
41706;BME280;27385;51.096;17.190;2023-01-09T05:29:23;98806.48;;;2.18;94.99
41706;BME280;27385;51.096;17.190;2023-01-09T05:31:54;98814.35;;;2.18;95.02
41706;BME280;27385;51.096;17.190;2023-01-09T05:34:25;98802.27;;;2.15;95.06
41706;BME280;27385;51.096;17.190;2023-01-09T05:36:56;98799.95;;;2.14;95.13
41706;BME280;27385;51.096;17.190;2023-01-09T05:39:27;98797.10;;;2.15;95.18
41706;BME280;27385;51.096;17.190;2023-01-09T05:41:57;98795.64;;;2.14;95.09
41706;BME280;27385;51.096;17.190;2023-01-09T05:44:28;98796.52;;;2.13;95.08
41706;BME280;27385;51.096;17.190;2023-01-09T05:46:59;98787.52;;;2.10;94.94
41706;BME280;27385;51.096;17.190;2023-01-09T05:49:30;98776.17;;;2.07;94.92
41706;BME280;27385;51.096;17.190;2023-01-09T05:52:01;98774.34;;;2.08;95.15
41706;BME280;27385;51.096;17.190;2023-01-09T05:54:33;98771.80;;;2.09;95.16
41706;BME280;27385;51.096;17.190;2023-01-09T05:57:04;98770.66;;;2.07;95.07
41706;BME280;27385;51.096;17.190;2023-01-09T05:59:35;98764.79;;;2.09;95.17
41706;BME280;27385;51.096;17.190;2023-01-09T06:02:06;98765.59;;;2.07;95.16
41706;BME280;27385;51.096;17.190;2023-01-09T06:04:37;98762.29;;;2.07;95.25
41706;BME280;27385;51.096;17.190;2023-01-09T06:07:08;98762.98;;;2.07;95.26
41706;BME280;27385;51.096;17.190;2023-01-09T06:09:39;98759.38;;;2.08;95.26
41706;BME280;27385;51.096;17.190;2023-01-09T06:12:10;98757.91;;;2.10;95.32
41706;BME280;27385;51.096;17.190;2023-01-09T06:14:41;98755.74;;;2.11;95.34
41706;BME280;27385;51.096;17.190;2023-01-09T06:17:12;98757.55;;;2.11;95.46
41706;BME280;27385;51.096;17.190;2023-01-09T06:19:43;98757.34;;;2.12;95.61
41706;BME280;27385;51.096;17.190;2023-01-09T06:22:14;98748.38;;;2.14;95.57
41706;BME280;27385;51.096;17.190;2023-01-09T06:24:45;98746.63;;;2.16;95.68
41706;BME280;27385;51.096;17.190;2023-01-09T06:27:16;98746.57;;;2.17;95.65
41706;BME280;27385;51.096;17.190;2023-01-09T06:29:46;98739.98;;;2.18;95.72
41706;BME280;27385;51.096;17.190;2023-01-09T06:32:17;98740.77;;;2.20;95.81
41706;BME280;27385;51.096;17.190;2023-01-09T06:34:48;98737.48;;;2.22;95.80
41706;BME280;27385;51.096;17.190;2023-01-09T06:37:19;98735.55;;;2.23;95.96
41706;BME280;27385;51.096;17.190;2023-01-09T06:39:50;98732.89;;;2.24;95.88
41706;BME280;27385;51.096;17.190;2023-01-09T06:42:22;98732.16;;;2.25;95.98
41706;BME280;27385;51.096;17.190;2023-01-09T06:44:53;98741.05;;;2.26;96.16
41706;BME280;27385;51.096;17.190;2023-01-09T06:47:24;98754.59;;;2.26;96.08
41706;BME280;27385;51.096;17.190;2023-01-09T06:49:55;98766.70;;;2.28;96.09
41706;BME280;27385;51.096;17.190;2023-01-09T06:52:26;98770.13;;;2.31;96.16
41706;BME280;27385;51.096;17.190;2023-01-09T06:54:57;98763.58;;;2.31;96.20
41706;BME280;27385;51.096;17.190;2023-01-09T06:57:29;98757.48;;;2.34;96.30
41706;BME280;27385;51.096;17.190;2023-01-09T06:59:59;98755.20;;;2.36;96.33
41706;BME280;27385;51.096;17.190;2023-01-09T07:02:30;98747.06;;;2.38;96.33
41706;BME280;27385;51.096;17.190;2023-01-09T07:05:02;98738.40;;;2.40;96.31
41706;BME280;27385;51.096;17.190;2023-01-09T07:07:36;98733.17;;;2.41;96.26
41706;BME280;27385;51.096;17.190;2023-01-09T07:10:10;98731.81;;;2.41;96.34
41706;BME280;27385;51.096;17.190;2023-01-09T07:12:41;98736.62;;;2.41;96.39
41706;BME280;27385;51.096;17.190;2023-01-09T07:15:12;98733.80;;;2.43;96.51
41706;BME280;27385;51.096;17.190;2023-01-09T07:17:43;98731.90;;;2.45;96.46
41706;BME280;27385;51.096;17.190;2023-01-09T07:20:14;98733.16;;;2.47;96.48
41706;BME280;27385;51.096;17.190;2023-01-09T07:22:46;98734.48;;;2.48;96.47
41706;BME280;27385;51.096;17.190;2023-01-09T07:25:17;98743.23;;;2.49;96.51
41706;BME280;27385;51.096;17.190;2023-01-09T07:27:48;98744.94;;;2.49;96.57
41706;BME280;27385;51.096;17.190;2023-01-09T07:30:19;98747.81;;;2.50;96.54
41706;BME280;27385;51.096;17.190;2023-01-09T07:32:50;98751.30;;;2.52;96.54
41706;BME280;27385;51.096;17.190;2023-01-09T07:35:22;98752.61;;;2.56;96.65
41706;BME280;27385;51.096;17.190;2023-01-09T07:37:53;98750.36;;;2.59;96.68
41706;BME280;27385;51.096;17.190;2023-01-09T07:40:24;98745.29;;;2.59;96.68
41706;BME280;27385;51.096;17.190;2023-01-09T07:42:55;98738.54;;;2.59;96.77
41706;BME280;27385;51.096;17.190;2023-01-09T07:45:26;98743.61;;;2.60;97.03
41706;BME280;27385;51.096;17.190;2023-01-09T07:47:57;98746.21;;;2.61;97.00
41706;BME280;27385;51.096;17.190;2023-01-09T07:50:28;98744.15;;;2.63;97.10
41706;BME280;27385;51.096;17.190;2023-01-09T07:53:00;98745.96;;;2.65;97.24
41706;BME280;27385;51.096;17.190;2023-01-09T07:55:31;98740.20;;;2.67;97.30
41706;BME280;27385;51.096;17.190;2023-01-09T07:58:01;98732.42;;;2.69;97.37
41706;BME280;27385;51.096;17.190;2023-01-09T08:00:32;98728.59;;;2.71;97.27
41706;BME280;27385;51.096;17.190;2023-01-09T08:03:04;98722.86;;;2.75;97.34
41706;BME280;27385;51.096;17.190;2023-01-09T08:05:35;98721.45;;;2.76;97.38
41706;BME280;27385;51.096;17.190;2023-01-09T08:08:06;98718.89;;;2.79;97.45
41706;BME280;27385;51.096;17.190;2023-01-09T08:10:37;98713.14;;;2.81;97.43
41706;BME280;27385;51.096;17.190;2023-01-09T08:13:08;98720.66;;;2.83;97.66
41706;BME280;27385;51.096;17.190;2023-01-09T08:15:39;98722.92;;;2.85;97.77
41706;BME280;27385;51.096;17.190;2023-01-09T08:18:10;98722.42;;;2.87;98.01
41706;BME280;27385;51.096;17.190;2023-01-09T08:20:41;98722.33;;;2.90;97.98
41706;BME280;27385;51.096;17.190;2023-01-09T08:23:12;98722.63;;;2.91;98.02
41706;BME280;27385;51.096;17.190;2023-01-09T08:25:42;98724.88;;;2.95;98.19
41706;BME280;27385;51.096;17.190;2023-01-09T08:28:14;98723.75;;;2.98;98.30
41706;BME280;27385;51.096;17.190;2023-01-09T08:30:47;98718.69;;;3.00;98.37
41706;BME280;27385;51.096;17.190;2023-01-09T08:33:17;98717.70;;;3.03;98.37
41706;BME280;27385;51.096;17.190;2023-01-09T08:35:49;98718.38;;;3.05;98.54
41706;BME280;27385;51.096;17.190;2023-01-09T08:38:20;98720.27;;;3.06;98.62
41706;BME280;27385;51.096;17.190;2023-01-09T08:40:51;98721.61;;;3.09;98.72
41706;BME280;27385;51.096;17.190;2023-01-09T08:43:22;98721.77;;;3.12;98.74
41706;BME280;27385;51.096;17.190;2023-01-09T08:46:18;98724.19;;;3.14;98.81
41706;BME280;27385;51.096;17.190;2023-01-09T08:49:07;98722.83;;;3.18;98.94
41706;BME280;27385;51.096;17.190;2023-01-09T08:51:38;98722.58;;;3.19;98.98
41706;BME280;27385;51.096;17.190;2023-01-09T08:54:09;98717.52;;;3.23;99.02
41706;BME280;27385;51.096;17.190;2023-01-09T08:56:40;98719.44;;;3.25;99.06
41706;BME280;27385;51.096;17.190;2023-01-09T08:59:11;98714.73;;;3.28;99.26
41706;BME280;27385;51.096;17.190;2023-01-09T09:01:42;98716.23;;;3.30;99.30
41706;BME280;27385;51.096;17.190;2023-01-09T09:04:13;98709.85;;;3.34;99.34
41706;BME280;27385;51.096;17.190;2023-01-09T09:06:44;98705.20;;;3.39;99.51
41706;BME280;27385;51.096;17.190;2023-01-09T09:09:16;98707.89;;;3.43;99.77
41706;BME280;27385;51.096;17.190;2023-01-09T09:11:47;98709.73;;;3.47;99.79
41706;BME280;27385;51.096;17.190;2023-01-09T09:14:19;98704.13;;;3.51;99.88
41706;BME280;27385;51.096;17.190;2023-01-09T09:17:07;98703.17;;;3.56;99.99
41706;BME280;27385;51.096;17.190;2023-01-09T09:19:38;98696.12;;;3.61;100.00
41706;BME280;27385;51.096;17.190;2023-01-09T09:22:11;98693.58;;;3.66;100.00
41706;BME280;27385;51.096;17.190;2023-01-09T09:24:42;98700.29;;;3.71;100.00
41706;BME280;27385;51.096;17.190;2023-01-09T09:27:12;98695.92;;;3.76;100.00
41706;BME280;27385;51.096;17.190;2023-01-09T09:29:43;98697.19;;;3.81;100.00
41706;BME280;27385;51.096;17.190;2023-01-09T09:32:14;98700.45;;;3.86;100.00
41706;BME280;27385;51.096;17.190;2023-01-09T09:34:45;98701.98;;;3.92;100.00
41706;BME280;27385;51.096;17.190;2023-01-09T09:37:16;98699.77;;;3.97;100.00
41706;BME280;27385;51.096;17.190;2023-01-09T09:39:47;98700.18;;;4.02;100.00
41706;BME280;27385;51.096;17.190;2023-01-09T09:42:31;98703.80;;;4.07;100.00
41706;BME280;27385;51.096;17.190;2023-01-09T09:45:32;98708.31;;;4.12;100.00
41706;BME280;27385;51.096;17.190;2023-01-09T09:48:15;98706.85;;;4.17;100.00
41706;BME280;27385;51.096;17.190;2023-01-09T09:51:05;98710.15;;;4.22;100.00
41706;BME280;27385;51.096;17.190;2023-01-09T09:53:45;98710.15;;;4.27;100.00
41706;BME280;27385;51.096;17.190;2023-01-09T09:56:20;98706.34;;;4.32;100.00
41706;BME280;27385;51.096;17.190;2023-01-09T09:58:55;98706.33;;;4.36;100.00
41706;BME280;27385;51.096;17.190;2023-01-09T10:01:35;98706.07;;;4.41;100.00
41706;BME280;27385;51.096;17.190;2023-01-09T10:04:12;98705.31;;;4.47;100.00
41706;BME280;27385;51.096;17.190;2023-01-09T10:06:46;98705.48;;;4.51;100.00
41706;BME280;27385;51.096;17.190;2023-01-09T10:09:28;98704.06;;;4.55;100.00
41706;BME280;27385;51.096;17.190;2023-01-09T10:12:12;98702.17;;;4.60;100.00
41706;BME280;27385;51.096;17.190;2023-01-09T10:14:46;98707.09;;;4.64;100.00
41706;BME280;27385;51.096;17.190;2023-01-09T10:17:36;98710.28;;;4.69;100.00
41706;BME280;27385;51.096;17.190;2023-01-09T10:26:12;98712.36;;;4.87;100.00
41706;BME280;27385;51.096;17.190;2023-01-09T10:28:58;98713.92;;;4.93;100.00
41706;BME280;27385;51.096;17.190;2023-01-09T10:31:38;98716.66;;;5.01;100.00
41706;BME280;27385;51.096;17.190;2023-01-09T10:34:25;98715.91;;;5.08;100.00
41706;BME280;27385;51.096;17.190;2023-01-09T10:37:03;98718.45;;;5.15;100.00
41706;BME280;27385;51.096;17.190;2023-01-09T10:39:40;98719.55;;;5.21;100.00
41706;BME280;27385;51.096;17.190;2023-01-09T10:42:19;98717.23;;;5.27;100.00
41706;BME280;27385;51.096;17.190;2023-01-09T10:44:56;98721.00;;;5.33;100.00
41706;BME280;27385;51.096;17.190;2023-01-09T10:47:33;98718.16;;;5.38;100.00
41706;BME280;27385;51.096;17.190;2023-01-09T10:50:19;98718.38;;;5.43;100.00
41706;BME280;27385;51.096;17.190;2023-01-09T10:52:53;98712.31;;;5.48;100.00
41706;BME280;27385;51.096;17.190;2023-01-09T10:55:30;98708.02;;;5.53;100.00
41706;BME280;27385;51.096;17.190;2023-01-09T10:58:09;98705.00;;;5.57;100.00
41706;BME280;27385;51.096;17.190;2023-01-09T11:00:41;98701.52;;;5.61;100.00
41706;BME280;27385;51.096;17.190;2023-01-09T11:03:14;98704.90;;;5.64;100.00
41706;BME280;27385;51.096;17.190;2023-01-09T11:05:50;98704.25;;;5.68;100.00
41706;BME280;27385;51.096;17.190;2023-01-09T11:08:26;98704.35;;;5.71;100.00
41706;BME280;27385;51.096;17.190;2023-01-09T11:11:00;98702.01;;;5.74;100.00
41706;BME280;27385;51.096;17.190;2023-01-09T11:13:33;98696.67;;;5.78;100.00
41706;BME280;27385;51.096;17.190;2023-01-09T11:16:16;98696.12;;;5.82;100.00
41706;BME280;27385;51.096;17.190;2023-01-09T11:18:52;98693.04;;;5.86;100.00
41706;BME280;27385;51.096;17.190;2023-01-09T11:21:33;98695.27;;;5.91;100.00
41706;BME280;27385;51.096;17.190;2023-01-09T11:24:25;98691.58;;;5.95;100.00
41706;BME280;27385;51.096;17.190;2023-01-09T11:27:18;98689.98;;;6.01;100.00
41706;BME280;27385;51.096;17.190;2023-01-09T11:30:15;98697.90;;;6.06;100.00
41706;BME280;27385;51.096;17.190;2023-01-09T11:32:48;98689.70;;;6.11;100.00
41706;BME280;27385;51.096;17.190;2023-01-09T11:35:25;98688.70;;;6.15;100.00
41706;BME280;27385;51.096;17.190;2023-01-09T11:38:06;98693.68;;;6.19;100.00
41706;BME280;27385;51.096;17.190;2023-01-09T11:40:50;98692.55;;;6.22;100.00
41706;BME280;27385;51.096;17.190;2023-01-09T11:43:25;98693.35;;;6.26;100.00
41706;BME280;27385;51.096;17.190;2023-01-09T11:46:01;98692.85;;;6.29;100.00
41706;BME280;27385;51.096;17.190;2023-01-09T11:48:36;98691.91;;;6.31;100.00
41706;BME280;27385;51.096;17.190;2023-01-09T11:51:20;98690.77;;;6.32;100.00
41706;BME280;27385;51.096;17.190;2023-01-09T11:54:06;98686.57;;;6.35;100.00
41706;BME280;27385;51.096;17.190;2023-01-09T11:56:42;98689.06;;;6.38;100.00
41706;BME280;27385;51.096;17.190;2023-01-09T11:59:15;98695.84;;;6.41;100.00
41706;BME280;27385;51.096;17.190;2023-01-09T12:02:19;98694.77;;;6.44;100.00
41706;BME280;27385;51.096;17.190;2023-01-09T12:04:57;98695.41;;;6.48;100.00
41706;BME280;27385;51.096;17.190;2023-01-09T12:07:49;98697.56;;;6.51;100.00
41706;BME280;27385;51.096;17.190;2023-01-09T12:10:39;98699.77;;;6.55;100.00
41706;BME280;27385;51.096;17.190;2023-01-09T12:13:21;98698.28;;;6.57;100.00
41706;BME280;27385;51.096;17.190;2023-01-09T12:16:00;98697.30;;;6.59;100.00
41706;BME280;27385;51.096;17.190;2023-01-09T12:18:43;98694.17;;;6.61;100.00
41706;BME280;27385;51.096;17.190;2023-01-09T12:21:27;98693.83;;;6.61;100.00
41706;BME280;27385;51.096;17.190;2023-01-09T12:27:08;98701.73;;;6.65;100.00
41706;BME280;27385;51.096;17.190;2023-01-09T12:29:56;98706.11;;;6.68;100.00
41706;BME280;27385;51.096;17.190;2023-01-09T12:32:41;98706.98;;;6.70;100.00
41706;BME280;27385;51.096;17.190;2023-01-09T12:35:27;98707.27;;;6.73;100.00
41706;BME280;27385;51.096;17.190;2023-01-09T12:38:18;98704.45;;;6.75;100.00
41706;BME280;27385;51.096;17.190;2023-01-09T12:41:13;98704.07;;;6.78;100.00
41706;BME280;27385;51.096;17.190;2023-01-09T12:43:59;98709.70;;;6.80;100.00
41706;BME280;27385;51.096;17.190;2023-01-09T12:46:39;98717.65;;;6.84;100.00
41706;BME280;27385;51.096;17.190;2023-01-09T12:49:28;98720.50;;;6.86;100.00
41706;BME280;27385;51.096;17.190;2023-01-09T12:52:04;98729.60;;;6.89;100.00
41706;BME280;27385;51.096;17.190;2023-01-09T12:54:41;98727.70;;;6.91;100.00
41706;BME280;27385;51.096;17.190;2023-01-09T12:57:20;98729.64;;;6.93;100.00
41706;BME280;27385;51.096;17.190;2023-01-09T12:59:54;98726.38;;;6.95;100.00
41706;BME280;27385;51.096;17.190;2023-01-09T13:02:31;98725.63;;;6.97;100.00
41706;BME280;27385;51.096;17.190;2023-01-09T13:05:08;98728.88;;;6.99;100.00
41706;BME280;27385;51.096;17.190;2023-01-09T13:07:48;98737.08;;;7.01;100.00
41706;BME280;27385;51.096;17.190;2023-01-09T13:10:24;98743.15;;;7.03;100.00
41706;BME280;27385;51.096;17.190;2023-01-09T13:13:01;98742.55;;;7.04;100.00
41706;BME280;27385;51.096;17.190;2023-01-09T13:15:38;98743.97;;;7.05;100.00
41706;BME280;27385;51.096;17.190;2023-01-09T13:18:15;98745.09;;;7.05;100.00
41706;BME280;27385;51.096;17.190;2023-01-09T13:20:51;98745.94;;;7.05;100.00
41706;BME280;27385;51.096;17.190;2023-01-09T13:23:29;98747.71;;;7.05;100.00
41706;BME280;27385;51.096;17.190;2023-01-09T13:26:04;98756.18;;;7.05;100.00
41706;BME280;27385;51.096;17.190;2023-01-09T13:28:40;98766.33;;;7.05;100.00
41706;BME280;27385;51.096;17.190;2023-01-09T13:37:02;98763.38;;;7.04;100.00
41706;BME280;27385;51.096;17.190;2023-01-09T13:39:35;98768.55;;;7.05;100.00
41706;BME280;27385;51.096;17.190;2023-01-09T13:42:17;98771.48;;;7.06;100.00
41706;BME280;27385;51.096;17.190;2023-01-09T13:45:20;98777.05;;;7.08;100.00
41706;BME280;27385;51.096;17.190;2023-01-09T13:48:23;98779.54;;;7.11;100.00
41706;BME280;27385;51.096;17.190;2023-01-09T13:54:02;98797.63;;;7.13;100.00
41706;BME280;27385;51.096;17.190;2023-01-09T13:57:17;98805.81;;;7.14;100.00
41706;BME280;27385;51.096;17.190;2023-01-09T13:59:59;98810.67;;;7.16;100.00
41706;BME280;27385;51.096;17.190;2023-01-09T14:03:15;98821.19;;;7.18;100.00
41706;BME280;27385;51.096;17.190;2023-01-09T14:06:16;98831.35;;;7.20;100.00
41706;BME280;27385;51.096;17.190;2023-01-09T14:09:14;98836.87;;;7.22;100.00